sensor_id;sensor_type;location;lat;lon;timestamp;pressure;altitude;pressure_sealevel;temperature;humidity
51526;BME280;37611;51.794;21.590;2023-03-20T00:03:02;99955.53;;;5.05;72.57
51526;BME280;37611;51.794;21.590;2023-03-20T00:07:04;99953.58;;;5.01;72.48
51526;BME280;37611;51.794;21.590;2023-03-20T00:11:16;99952.36;;;4.92;72.57
51526;BME280;37611;51.794;21.590;2023-03-20T00:15:31;99950.02;;;4.84;72.69
51526;BME280;37611;51.794;21.590;2023-03-20T00:19:34;99949.98;;;4.75;72.24
51526;BME280;37611;51.794;21.590;2023-03-20T00:23:36;99947.77;;;4.68;73.07
51526;BME280;37611;51.794;21.590;2023-03-20T00:27:38;99945.02;;;4.61;73.10
51526;BME280;37611;51.794;21.590;2023-03-20T00:31:39;99941.61;;;4.56;73.02
51526;BME280;37611;51.794;21.590;2023-03-20T00:35:41;99945.56;;;4.54;73.81
51526;BME280;37611;51.794;21.590;2023-03-20T00:39:43;99944.11;;;4.55;73.94
51526;BME280;37611;51.794;21.590;2023-03-20T00:43:47;99943.14;;;4.54;74.75
51526;BME280;37611;51.794;21.590;2023-03-20T00:47:50;99942.78;;;4.52;75.00
51526;BME280;37611;51.794;21.590;2023-03-20T00:51:53;99939.79;;;4.48;75.56
51526;BME280;37611;51.794;21.590;2023-03-20T00:55:55;99938.77;;;4.45;74.51
51526;BME280;37611;51.794;21.590;2023-03-20T00:59:58;99941.31;;;4.41;74.22
51526;BME280;37611;51.794;21.590;2023-03-20T01:04:02;99935.44;;;4.36;73.98
51526;BME280;37611;51.794;21.590;2023-03-20T01:08:18;99935.06;;;4.27;74.16
51526;BME280;37611;51.794;21.590;2023-03-20T01:12:20;99929.67;;;4.15;75.43
51526;BME280;37611;51.794;21.590;2023-03-20T01:16:23;99929.45;;;4.07;75.50
51526;BME280;37611;51.794;21.590;2023-03-20T01:20:28;99926.19;;;3.97;75.04
51526;BME280;37611;51.794;21.590;2023-03-20T01:24:30;99924.69;;;3.91;75.39
51526;BME280;37611;51.794;21.590;2023-03-20T01:28:32;99924.82;;;3.84;76.60
51526;BME280;37611;51.794;21.590;2023-03-20T01:32:34;99923.20;;;3.78;76.43
51526;BME280;37611;51.794;21.590;2023-03-20T01:36:36;99925.40;;;3.77;77.07
51526;BME280;37611;51.794;21.590;2023-03-20T01:44:40;99924.56;;;3.81;77.00
51526;BME280;37611;51.794;21.590;2023-03-20T01:53:26;99921.55;;;3.77;77.76
51526;BME280;37611;51.794;21.590;2023-03-20T01:57:27;99914.52;;;3.71;78.34
51526;BME280;37611;51.794;21.590;2023-03-20T02:01:29;99913.12;;;3.69;78.70
51526;BME280;37611;51.794;21.590;2023-03-20T02:05:31;99910.00;;;3.67;78.86
51526;BME280;37611;51.794;21.590;2023-03-20T02:09:33;99904.86;;;3.66;78.76
51526;BME280;37611;51.794;21.590;2023-03-20T02:13:35;99900.25;;;3.60;79.79
51526;BME280;37611;51.794;21.590;2023-03-20T02:17:37;99897.30;;;3.56;80.30
51526;BME280;37611;51.794;21.590;2023-03-20T02:26:08;99897.72;;;3.47;80.57
51526;BME280;37611;51.794;21.590;2023-03-20T02:39:01;99890.67;;;3.42;80.23
51526;BME280;37611;51.794;21.590;2023-03-20T02:52:27;99889.02;;;3.24;81.16
51526;BME280;37611;51.794;21.590;2023-03-20T03:04:54;99882.27;;;3.26;82.07
51526;BME280;37611;51.794;21.590;2023-03-20T03:09:13;99877.40;;;3.24;81.88
51526;BME280;37611;51.794;21.590;2023-03-20T03:13:20;99874.85;;;3.24;82.22
51526;BME280;37611;51.794;21.590;2023-03-20T03:17:27;99870.59;;;3.27;82.78
51526;BME280;37611;51.794;21.590;2023-03-20T03:21:31;99869.00;;;3.35;83.25
51526;BME280;37611;51.794;21.590;2023-03-20T03:25:37;99869.05;;;3.41;82.64
51526;BME280;37611;51.794;21.590;2023-03-20T03:29:40;99865.10;;;3.38;81.87
51526;BME280;37611;51.794;21.590;2023-03-20T03:33:49;99862.83;;;3.22;82.08
51526;BME280;37611;51.794;21.590;2023-03-20T03:42:41;99855.48;;;2.99;83.23
51526;BME280;37611;51.794;21.590;2023-03-20T03:46:56;99853.83;;;2.98;83.66
51526;BME280;37611;51.794;21.590;2023-03-20T03:51:03;99854.98;;;3.01;83.69
51526;BME280;37611;51.794;21.590;2023-03-20T03:55:11;99860.77;;;3.02;84.23
51526;BME280;37611;51.794;21.590;2023-03-20T03:59:29;99855.63;;;3.02;83.44
51526;BME280;37611;51.794;21.590;2023-03-20T04:03:37;99852.52;;;3.02;84.13
51526;BME280;37611;51.794;21.590;2023-03-20T04:07:44;99848.39;;;3.03;83.91
51526;BME280;37611;51.794;21.590;2023-03-20T04:11:49;99845.67;;;3.03;84.13
51526;BME280;37611;51.794;21.590;2023-03-20T04:15:51;99845.69;;;2.98;84.24
51526;BME280;37611;51.794;21.590;2023-03-20T04:19:53;99849.48;;;2.95;84.36
51526;BME280;37611;51.794;21.590;2023-03-20T04:23:55;99847.77;;;2.95;84.12
51526;BME280;37611;51.794;21.590;2023-03-20T04:27:56;99848.44;;;2.93;84.67
51526;BME280;37611;51.794;21.590;2023-03-20T04:31:58;99848.64;;;2.90;84.76
51526;BME280;37611;51.794;21.590;2023-03-20T04:36:00;99849.16;;;2.85;84.60
51526;BME280;37611;51.794;21.590;2023-03-20T04:40:03;99851.63;;;2.82;84.95
51526;BME280;37611;51.794;21.590;2023-03-20T04:44:05;99850.34;;;2.78;84.56
51526;BME280;37611;51.794;21.590;2023-03-20T04:48:07;99854.44;;;2.74;84.69
51526;BME280;37611;51.794;21.590;2023-03-20T04:52:09;99858.69;;;2.67;85.77
51526;BME280;37611;51.794;21.590;2023-03-20T04:56:11;99863.70;;;2.65;85.42
51526;BME280;37611;51.794;21.590;2023-03-20T05:00:13;99862.73;;;2.64;85.06
51526;BME280;37611;51.794;21.590;2023-03-20T05:04:15;99864.16;;;2.65;85.45
51526;BME280;37611;51.794;21.590;2023-03-20T05:08:17;99863.04;;;2.69;85.79
51526;BME280;37611;51.794;21.590;2023-03-20T05:12:19;99860.16;;;2.76;86.15
51526;BME280;37611;51.794;21.590;2023-03-20T05:16:21;99862.41;;;2.88;86.52
51526;BME280;37611;51.794;21.590;2023-03-20T05:20:23;99862.45;;;3.03;87.25
51526;BME280;37611;51.794;21.590;2023-03-20T05:24:25;99857.79;;;3.17;86.46
51526;BME280;37611;51.794;21.590;2023-03-20T05:28:29;99856.09;;;3.41;86.66
51526;BME280;37611;51.794;21.590;2023-03-20T05:32:31;99863.27;;;3.69;86.06
51526;BME280;37611;51.794;21.590;2023-03-20T05:36:35;99862.52;;;4.03;86.10
51526;BME280;37611;51.794;21.590;2023-03-20T05:40:37;99863.68;;;4.45;85.77
51526;BME280;37611;51.794;21.590;2023-03-20T05:44:39;99859.30;;;4.84;85.24
51526;BME280;37611;51.794;21.590;2023-03-20T05:48:41;99853.35;;;5.13;84.13
51526;BME280;37611;51.794;21.590;2023-03-20T05:52:46;99856.77;;;5.27;83.24
51526;BME280;37611;51.794;21.590;2023-03-20T05:56:48;99855.77;;;5.33;82.79
51526;BME280;37611;51.794;21.590;2023-03-20T06:00:50;99858.50;;;5.31;82.70
51526;BME280;37611;51.794;21.590;2023-03-20T06:04:52;99859.61;;;5.37;82.78
51526;BME280;37611;51.794;21.590;2023-03-20T06:08:54;99859.41;;;5.42;82.62
51526;BME280;37611;51.794;21.590;2023-03-20T06:12:57;99862.77;;;5.46;82.03
51526;BME280;37611;51.794;21.590;2023-03-20T06:17:01;99864.08;;;5.49;82.41
51526;BME280;37611;51.794;21.590;2023-03-20T06:21:03;99863.52;;;5.60;81.87
51526;BME280;37611;51.794;21.590;2023-03-20T06:25:06;99868.45;;;5.70;81.62
51526;BME280;37611;51.794;21.590;2023-03-20T06:29:08;99869.84;;;5.85;81.58
51526;BME280;37611;51.794;21.590;2023-03-20T06:33:10;99871.85;;;6.10;81.50
51526;BME280;37611;51.794;21.590;2023-03-20T06:37:13;99873.59;;;6.47;80.97
51526;BME280;37611;51.794;21.590;2023-03-20T06:41:14;99876.20;;;6.84;79.89
51526;BME280;37611;51.794;21.590;2023-03-20T06:45:16;99880.14;;;7.13;78.59
51526;BME280;37611;51.794;21.590;2023-03-20T06:49:18;99879.77;;;7.55;77.94
51526;BME280;37611;51.794;21.590;2023-03-20T06:53:20;99879.95;;;8.04;76.10
51526;BME280;37611;51.794;21.590;2023-03-20T06:57:22;99875.82;;;8.57;73.56
51526;BME280;37611;51.794;21.590;2023-03-20T07:01:25;99872.60;;;9.11;71.84
51526;BME280;37611;51.794;21.590;2023-03-20T07:05:27;99876.02;;;9.42;70.18
51526;BME280;37611;51.794;21.590;2023-03-20T07:09:29;99877.27;;;9.77;70.17
51526;BME280;37611;51.794;21.590;2023-03-20T07:13:32;99877.38;;;10.15;68.23
51526;BME280;37611;51.794;21.590;2023-03-20T07:17:34;99877.04;;;10.35;66.80
51526;BME280;37611;51.794;21.590;2023-03-20T07:21:36;99877.95;;;10.59;65.36
51526;BME280;37611;51.794;21.590;2023-03-20T07:25:37;99875.19;;;11.03;64.97
51526;BME280;37611;51.794;21.590;2023-03-20T07:29:39;99875.89;;;11.48;62.83
51526;BME280;37611;51.794;21.590;2023-03-20T07:33:41;99868.06;;;11.99;60.92
51526;BME280;37611;51.794;21.590;2023-03-20T07:37:43;99871.89;;;12.34;59.34
51526;BME280;37611;51.794;21.590;2023-03-20T07:41:45;99873.98;;;12.52;57.16
51526;BME280;37611;51.794;21.590;2023-03-20T07:45:47;99868.36;;;12.93;56.93
51526;BME280;37611;51.794;21.590;2023-03-20T07:49:49;99869.68;;;13.16;56.21
51526;BME280;37611;51.794;21.590;2023-03-20T07:53:51;99871.20;;;13.35;55.06
51526;BME280;37611;51.794;21.590;2023-03-20T07:57:53;99870.32;;;13.46;53.82
51526;BME280;37611;51.794;21.590;2023-03-20T08:01:54;99867.75;;;13.56;51.91
51526;BME280;37611;51.794;21.590;2023-03-20T08:05:56;99863.51;;;14.01;52.98
51526;BME280;37611;51.794;21.590;2023-03-20T08:09:58;99865.42;;;14.52;50.95
51526;BME280;37611;51.794;21.590;2023-03-20T08:14:00;99862.44;;;15.00;52.11
51526;BME280;37611;51.794;21.590;2023-03-20T08:18:02;99862.67;;;15.10;48.86
51526;BME280;37611;51.794;21.590;2023-03-20T08:22:04;99862.80;;;15.13;48.94
51526;BME280;37611;51.794;21.590;2023-03-20T08:26:06;99864.06;;;15.30;49.21
51526;BME280;37611;51.794;21.590;2023-03-20T08:30:09;99864.65;;;15.62;48.58
51526;BME280;37611;51.794;21.590;2023-03-20T08:34:12;99864.17;;;15.71;46.69
51526;BME280;37611;51.794;21.590;2023-03-20T08:38:14;99865.11;;;15.76;47.16
51526;BME280;37611;51.794;21.590;2023-03-20T08:42:16;99865.35;;;15.93;46.28
51526;BME280;37611;51.794;21.590;2023-03-20T08:46:18;99863.76;;;16.28;46.12
51526;BME280;37611;51.794;21.590;2023-03-20T08:50:19;99862.46;;;16.64;45.73
51526;BME280;37611;51.794;21.590;2023-03-20T08:54:21;99865.63;;;16.94;45.14
51526;BME280;37611;51.794;21.590;2023-03-20T08:58:23;99863.27;;;17.21;44.94
51526;BME280;37611;51.794;21.590;2023-03-20T09:02:25;99859.40;;;17.55;44.67
51526;BME280;37611;51.794;21.590;2023-03-20T09:06:27;99856.89;;;17.77;42.16
51526;BME280;37611;51.794;21.590;2023-03-20T09:10:28;99859.48;;;17.95;41.36
51526;BME280;37611;51.794;21.590;2023-03-20T09:14:31;99862.11;;;18.10;41.28
51526;BME280;37611;51.794;21.590;2023-03-20T09:18:33;99861.79;;;18.25;40.69
51526;BME280;37611;51.794;21.590;2023-03-20T09:22:34;99861.27;;;18.24;40.16
51526;BME280;37611;51.794;21.590;2023-03-20T09:26:37;99858.27;;;18.27;40.89
51526;BME280;37611;51.794;21.590;2023-03-20T09:30:39;99858.35;;;18.32;40.03
51526;BME280;37611;51.794;21.590;2023-03-20T09:34:43;99857.22;;;18.47;39.44
51526;BME280;37611;51.794;21.590;2023-03-20T09:38:45;99859.08;;;18.34;39.46
51526;BME280;37611;51.794;21.590;2023-03-20T09:47:23;99855.23;;;18.28;39.23
51526;BME280;37611;51.794;21.590;2023-03-20T09:55:35;99854.88;;;18.15;38.23
51526;BME280;37611;51.794;21.590;2023-03-20T09:59:37;99854.30;;;18.07;38.50
51526;BME280;37611;51.794;21.590;2023-03-20T10:03:50;99850.21;;;18.03;37.94
51526;BME280;37611;51.794;21.590;2023-03-20T10:07:55;99853.77;;;17.97;38.49
51526;BME280;37611;51.794;21.590;2023-03-20T10:21:20;99849.27;;;18.23;37.86
51526;BME280;37611;51.794;21.590;2023-03-20T10:33:48;99838.23;;;18.51;37.79
51526;BME280;37611;51.794;21.590;2023-03-20T10:42:02;99832.52;;;18.86;37.51
51526;BME280;37611;51.794;21.590;2023-03-20T10:50:13;99828.39;;;18.79;37.75
51526;BME280;37611;51.794;21.590;2023-03-20T10:54:27;99825.56;;;18.38;38.01
51526;BME280;37611;51.794;21.590;2023-03-20T10:58:34;99822.94;;;18.12;38.55
51526;BME280;37611;51.794;21.590;2023-03-20T11:02:37;99817.98;;;17.81;38.92
51526;BME280;37611;51.794;21.590;2023-03-20T11:07:02;99813.56;;;17.59;39.39
51526;BME280;37611;51.794;21.590;2023-03-20T11:11:08;99808.70;;;17.52;39.94
51526;BME280;37611;51.794;21.590;2023-03-20T11:15:27;99802.35;;;17.72;40.30
51526;BME280;37611;51.794;21.590;2023-03-20T11:19:33;99798.70;;;18.02;39.46
51526;BME280;37611;51.794;21.590;2023-03-20T11:23:35;99801.16;;;18.28;39.08
51526;BME280;37611;51.794;21.590;2023-03-20T11:27:37;99804.52;;;18.51;38.41
51526;BME280;37611;51.794;21.590;2023-03-20T11:31:40;99797.89;;;18.50;37.94
51526;BME280;37611;51.794;21.590;2023-03-20T11:35:46;99789.76;;;18.14;37.98
51526;BME280;37611;51.794;21.590;2023-03-20T11:44:29;99788.19;;;17.84;39.27
51526;BME280;37611;51.794;21.590;2023-03-20T11:48:36;99784.00;;;17.71;39.43
51526;BME280;37611;51.794;21.590;2023-03-20T11:52:39;99781.66;;;17.39;39.33
51526;BME280;37611;51.794;21.590;2023-03-20T11:56:53;99782.60;;;17.06;39.98
51526;BME280;37611;51.794;21.590;2023-03-20T12:00:55;99784.30;;;16.88;40.70
51526;BME280;37611;51.794;21.590;2023-03-20T12:04:59;99780.52;;;16.79;40.89
51526;BME280;37611;51.794;21.590;2023-03-20T12:09:06;99778.55;;;16.65;41.51
51526;BME280;37611;51.794;21.590;2023-03-20T12:13:21;99777.17;;;16.66;41.59
51526;BME280;37611;51.794;21.590;2023-03-20T12:17:31;99776.95;;;16.55;41.73
51526;BME280;37611;51.794;21.590;2023-03-20T12:22:11;99779.52;;;16.49;42.13
51526;BME280;37611;51.794;21.590;2023-03-20T12:26:35;99776.52;;;16.27;42.42
51526;BME280;37611;51.794;21.590;2023-03-20T12:30:44;99772.95;;;16.05;43.32
51526;BME280;37611;51.794;21.590;2023-03-20T12:34:57;99774.48;;;16.07;43.53
51526;BME280;37611;51.794;21.590;2023-03-20T12:39:03;99770.55;;;16.04;43.87
51526;BME280;37611;51.794;21.590;2023-03-20T12:43:24;99765.58;;;16.10;43.75
51526;BME280;37611;51.794;21.590;2023-03-20T13:00:34;99761.05;;;15.97;45.38
51526;BME280;37611;51.794;21.590;2023-03-20T13:17:24;99758.26;;;15.44;47.10
51526;BME280;37611;51.794;21.590;2023-03-20T13:21:45;99752.23;;;15.30;47.60
51526;BME280;37611;51.794;21.590;2023-03-20T13:30:27;99750.52;;;14.98;49.02
51526;BME280;37611;51.794;21.590;2023-03-20T13:35:03;99753.91;;;14.89;49.25
51526;BME280;37611;51.794;21.590;2023-03-20T13:39:15;99755.48;;;14.79;49.66
51526;BME280;37611;51.794;21.590;2023-03-20T13:43:27;99753.39;;;14.71;50.25
51526;BME280;37611;51.794;21.590;2023-03-20T13:47:32;99753.77;;;14.70;50.64
51526;BME280;37611;51.794;21.590;2023-03-20T13:51:41;99753.26;;;14.73;50.91
51526;BME280;37611;51.794;21.590;2023-03-20T14:00:16;99748.56;;;14.78;51.84
51526;BME280;37611;51.794;21.590;2023-03-20T14:04:22;99745.61;;;14.89;51.38
51526;BME280;37611;51.794;21.590;2023-03-20T14:12:31;99745.65;;;14.98;52.08
51526;BME280;37611;51.794;21.590;2023-03-20T14:16:33;99746.95;;;14.90;52.36
51526;BME280;37611;51.794;21.590;2023-03-20T14:20:39;99746.30;;;14.73;52.78
51526;BME280;37611;51.794;21.590;2023-03-20T14:25:19;99752.48;;;14.60;53.65
51526;BME280;37611;51.794;21.590;2023-03-20T14:41:47;99747.70;;;14.35;54.84
51526;BME280;37611;51.794;21.590;2023-03-20T14:50:22;99744.80;;;14.19;54.86
51526;BME280;37611;51.794;21.590;2023-03-20T14:54:28;99746.62;;;14.16;55.33
51526;BME280;37611;51.794;21.590;2023-03-20T14:58:52;99751.33;;;14.07;55.83
51526;BME280;37611;51.794;21.590;2023-03-20T15:03:16;99749.04;;;13.92;56.64
51526;BME280;37611;51.794;21.590;2023-03-20T15:07:29;99754.66;;;13.81;57.23
51526;BME280;37611;51.794;21.590;2023-03-20T15:11:32;99751.48;;;13.67;58.18
51526;BME280;37611;51.794;21.590;2023-03-20T15:15:34;99746.52;;;13.50;59.14
51526;BME280;37611;51.794;21.590;2023-03-20T15:19:38;99749.33;;;13.49;59.14
51526;BME280;37611;51.794;21.590;2023-03-20T15:23:43;99748.39;;;13.45;59.63
51526;BME280;37611;51.794;21.590;2023-03-20T15:27:45;99752.64;;;13.42;59.93
51526;BME280;37611;51.794;21.590;2023-03-20T15:31:57;99750.70;;;13.37;60.02
51526;BME280;37611;51.794;21.590;2023-03-20T15:36:17;99752.37;;;13.29;60.88
51526;BME280;37611;51.794;21.590;2023-03-20T15:44:26;99761.58;;;13.17;62.48
51526;BME280;37611;51.794;21.590;2023-03-20T15:48:28;99764.09;;;13.12;62.65
51526;BME280;37611;51.794;21.590;2023-03-20T15:52:44;99759.70;;;13.12;62.84
51526;BME280;37611;51.794;21.590;2023-03-20T15:56:56;99761.52;;;13.05;63.69
51526;BME280;37611;51.794;21.590;2023-03-20T16:00:59;99765.20;;;12.99;64.10
51526;BME280;37611;51.794;21.590;2023-03-20T16:05:03;99766.78;;;12.94;64.26
51526;BME280;37611;51.794;21.590;2023-03-20T16:09:07;99765.79;;;12.89;64.89
51526;BME280;37611;51.794;21.590;2023-03-20T16:13:12;99766.71;;;12.84;65.03
51526;BME280;37611;51.794;21.590;2023-03-20T16:17:19;99767.38;;;12.73;65.87
51526;BME280;37611;51.794;21.590;2023-03-20T16:21:26;99769.05;;;12.65;66.13
51526;BME280;37611;51.794;21.590;2023-03-20T16:25:30;99776.74;;;12.56;66.89
51526;BME280;37611;51.794;21.590;2023-03-20T16:29:32;99779.89;;;12.50;67.05
51526;BME280;37611;51.794;21.590;2023-03-20T16:33:35;99780.38;;;12.42;67.68
51526;BME280;37611;51.794;21.590;2023-03-20T16:37:42;99784.21;;;12.36;68.05
51526;BME280;37611;51.794;21.590;2023-03-20T16:42:02;99788.98;;;12.28;68.83
51526;BME280;37611;51.794;21.590;2023-03-20T16:46:19;99787.30;;;12.08;69.71
51526;BME280;37611;51.794;21.590;2023-03-20T16:50:33;99789.88;;;11.95;70.70
51526;BME280;37611;51.794;21.590;2023-03-20T16:54:35;99791.20;;;11.83;71.12
51526;BME280;37611;51.794;21.590;2023-03-20T16:58:37;99793.71;;;11.74;72.25
51526;BME280;37611;51.794;21.590;2023-03-20T17:02:41;99794.53;;;11.70;72.63
51526;BME280;37611;51.794;21.590;2023-03-20T17:06:54;99789.96;;;11.66;73.03
51526;BME280;37611;51.794;21.590;2023-03-20T17:10:59;99789.14;;;11.66;73.51
51526;BME280;37611;51.794;21.590;2023-03-20T17:15:01;99783.65;;;11.65;73.95
51526;BME280;37611;51.794;21.590;2023-03-20T17:19:12;99776.41;;;11.60;74.88
51526;BME280;37611;51.794;21.590;2023-03-20T17:23:18;99777.19;;;11.53;74.88
51526;BME280;37611;51.794;21.590;2023-03-20T17:27:20;99780.52;;;11.48;74.84
51526;BME280;37611;51.794;21.590;2023-03-20T17:31:23;99780.08;;;11.42;75.38
51526;BME280;37611;51.794;21.590;2023-03-20T17:35:25;99780.11;;;11.37;76.03
51526;BME280;37611;51.794;21.590;2023-03-20T17:39:27;99782.92;;;11.30;76.00
51526;BME280;37611;51.794;21.590;2023-03-20T17:43:28;99783.44;;;11.22;75.72
51526;BME280;37611;51.794;21.590;2023-03-20T17:47:30;99777.40;;;11.13;76.86
51526;BME280;37611;51.794;21.590;2023-03-20T17:51:33;99775.12;;;11.08;77.23
51526;BME280;37611;51.794;21.590;2023-03-20T17:55:35;99777.09;;;11.04;77.67
51526;BME280;37611;51.794;21.590;2023-03-20T17:59:37;99783.80;;;11.00;78.15
51526;BME280;37611;51.794;21.590;2023-03-20T18:03:39;99786.45;;;10.97;78.53
51526;BME280;37611;51.794;21.590;2023-03-20T18:07:41;99793.36;;;10.89;78.25
51526;BME280;37611;51.794;21.590;2023-03-20T18:11:44;99797.41;;;10.81;78.93
51526;BME280;37611;51.794;21.590;2023-03-20T18:15:51;99801.92;;;10.74;80.26
51526;BME280;37611;51.794;21.590;2023-03-20T18:19:53;99805.77;;;10.71;81.30
51526;BME280;37611;51.794;21.590;2023-03-20T18:23:55;99804.43;;;10.65;82.41
51526;BME280;37611;51.794;21.590;2023-03-20T18:27:59;99810.52;;;10.59;85.20
51526;BME280;37611;51.794;21.590;2023-03-20T18:32:01;99802.81;;;10.53;86.83
51526;BME280;37611;51.794;21.590;2023-03-20T18:36:03;99806.95;;;10.47;87.02
51526;BME280;37611;51.794;21.590;2023-03-20T18:44:15;99800.52;;;10.33;88.65
51526;BME280;37611;51.794;21.590;2023-03-20T18:48:17;99803.36;;;10.26;91.28
51526;BME280;37611;51.794;21.590;2023-03-20T18:52:19;99802.21;;;10.23;89.94
51526;BME280;37611;51.794;21.590;2023-03-20T18:56:23;99802.44;;;10.23;90.07
51526;BME280;37611;51.794;21.590;2023-03-20T19:00:28;99803.33;;;10.19;90.55
51526;BME280;37611;51.794;21.590;2023-03-20T19:04:30;99794.52;;;10.13;89.88
51526;BME280;37611;51.794;21.590;2023-03-20T19:08:33;99796.64;;;10.04;92.20
51526;BME280;37611;51.794;21.590;2023-03-20T19:12:36;99798.81;;;9.96;92.31
51526;BME280;37611;51.794;21.590;2023-03-20T19:16:39;99802.17;;;9.90;93.60
51526;BME280;37611;51.794;21.590;2023-03-20T19:20:43;99801.36;;;9.85;95.62
51526;BME280;37611;51.794;21.590;2023-03-20T19:24:45;99801.10;;;9.82;94.61
51526;BME280;37611;51.794;21.590;2023-03-20T19:28:47;99799.90;;;9.80;96.10
51526;BME280;37611;51.794;21.590;2023-03-20T19:32:52;99799.34;;;9.75;96.69
51526;BME280;37611;51.794;21.590;2023-03-20T19:36:54;99801.05;;;9.72;94.67
51526;BME280;37611;51.794;21.590;2023-03-20T19:40:56;99799.33;;;9.66;95.16
51526;BME280;37611;51.794;21.590;2023-03-20T19:44:58;99799.85;;;9.61;95.47
51526;BME280;37611;51.794;21.590;2023-03-20T19:48:59;99797.52;;;9.56;94.96
51526;BME280;37611;51.794;21.590;2023-03-20T19:53:04;99796.93;;;9.50;94.91
51526;BME280;37611;51.794;21.590;2023-03-20T19:57:06;99801.69;;;9.44;95.30
51526;BME280;37611;51.794;21.590;2023-03-20T20:01:13;99797.77;;;9.36;95.47
51526;BME280;37611;51.794;21.590;2023-03-20T20:05:24;99796.77;;;9.26;96.75
51526;BME280;37611;51.794;21.590;2023-03-20T20:09:27;99793.90;;;9.21;95.25
51526;BME280;37611;51.794;21.590;2023-03-20T20:13:30;99794.52;;;9.15;95.75
51526;BME280;37611;51.794;21.590;2023-03-20T20:17:33;99787.62;;;9.11;96.24
51526;BME280;37611;51.794;21.590;2023-03-20T20:21:35;99791.20;;;9.04;96.35
51526;BME280;37611;51.794;21.590;2023-03-20T20:25:39;99787.73;;;9.00;96.76
51526;BME280;37611;51.794;21.590;2023-03-20T20:29:44;99781.30;;;8.98;97.14
51526;BME280;37611;51.794;21.590;2023-03-20T20:33:46;99784.20;;;8.94;97.97
51526;BME280;37611;51.794;21.590;2023-03-20T20:37:48;99785.35;;;8.91;97.90
51526;BME280;37611;51.794;21.590;2023-03-20T20:41:50;99781.45;;;8.87;99.24
51526;BME280;37611;51.794;21.590;2023-03-20T20:45:52;99780.61;;;8.85;99.76
51526;BME280;37611;51.794;21.590;2023-03-20T20:49:54;99782.41;;;8.81;99.63
51526;BME280;37611;51.794;21.590;2023-03-20T20:53:55;99782.02;;;8.76;100.00
51526;BME280;37611;51.794;21.590;2023-03-20T20:57:57;99780.72;;;8.73;100.00
51526;BME280;37611;51.794;21.590;2023-03-20T21:01:59;99779.80;;;8.72;100.00
51526;BME280;37611;51.794;21.590;2023-03-20T21:06:04;99777.04;;;8.69;100.00
51526;BME280;37611;51.794;21.590;2023-03-20T21:10:07;99777.23;;;8.64;100.00
51526;BME280;37611;51.794;21.590;2023-03-20T21:14:09;99776.38;;;8.60;100.00
51526;BME280;37611;51.794;21.590;2023-03-20T21:18:12;99774.62;;;8.53;100.00
51526;BME280;37611;51.794;21.590;2023-03-20T21:22:13;99771.09;;;8.49;100.00
51526;BME280;37611;51.794;21.590;2023-03-20T21:26:17;99775.27;;;8.46;100.00
51526;BME280;37611;51.794;21.590;2023-03-20T21:30:19;99780.44;;;8.45;100.00
51526;BME280;37611;51.794;21.590;2023-03-20T21:34:22;99784.02;;;8.44;100.00
51526;BME280;37611;51.794;21.590;2023-03-20T21:38:23;99784.05;;;8.43;100.00
51526;BME280;37611;51.794;21.590;2023-03-20T21:42:25;99781.52;;;8.46;100.00
51526;BME280;37611;51.794;21.590;2023-03-20T21:46:27;99787.23;;;8.49;100.00
51526;BME280;37611;51.794;21.590;2023-03-20T21:50:29;99789.55;;;8.53;100.00
51526;BME280;37611;51.794;21.590;2023-03-20T21:54:31;99789.98;;;8.56;100.00
51526;BME280;37611;51.794;21.590;2023-03-20T21:58:32;99784.05;;;8.60;100.00
51526;BME280;37611;51.794;21.590;2023-03-20T22:02:34;99784.77;;;8.65;100.00
51526;BME280;37611;51.794;21.590;2023-03-20T22:06:36;99786.54;;;8.65;100.00
51526;BME280;37611;51.794;21.590;2023-03-20T22:10:38;99782.88;;;8.62;100.00
51526;BME280;37611;51.794;21.590;2023-03-20T22:14:40;99783.60;;;8.61;100.00
51526;BME280;37611;51.794;21.590;2023-03-20T22:18:43;99783.48;;;8.63;100.00
51526;BME280;37611;51.794;21.590;2023-03-20T22:22:44;99780.69;;;8.64;100.00
51526;BME280;37611;51.794;21.590;2023-03-20T22:26:46;99781.91;;;8.68;100.00
51526;BME280;37611;51.794;21.590;2023-03-20T22:30:48;99780.74;;;8.69;100.00
51526;BME280;37611;51.794;21.590;2023-03-20T22:34:50;99776.66;;;8.70;100.00
51526;BME280;37611;51.794;21.590;2023-03-20T22:38:51;99775.73;;;8.72;100.00
51526;BME280;37611;51.794;21.590;2023-03-20T22:42:53;99770.21;;;8.75;100.00
51526;BME280;37611;51.794;21.590;2023-03-20T22:46:55;99773.45;;;8.74;100.00
51526;BME280;37611;51.794;21.590;2023-03-20T22:50:57;99768.80;;;8.75;100.00
51526;BME280;37611;51.794;21.590;2023-03-20T22:54:58;99765.21;;;8.76;100.00
51526;BME280;37611;51.794;21.590;2023-03-20T22:59:00;99766.85;;;8.76;100.00
51526;BME280;37611;51.794;21.590;2023-03-20T23:03:03;99765.57;;;8.76;100.00
51526;BME280;37611;51.794;21.590;2023-03-20T23:07:05;99773.80;;;8.71;100.00
51526;BME280;37611;51.794;21.590;2023-03-20T23:11:08;99766.63;;;8.66;100.00
51526;BME280;37611;51.794;21.590;2023-03-20T23:15:10;99773.58;;;8.64;100.00
51526;BME280;37611;51.794;21.590;2023-03-20T23:19:12;99778.89;;;8.59;100.00
51526;BME280;37611;51.794;21.590;2023-03-20T23:23:14;99778.83;;;8.54;100.00
51526;BME280;37611;51.794;21.590;2023-03-20T23:27:18;99780.96;;;8.52;100.00
51526;BME280;37611;51.794;21.590;2023-03-20T23:31:23;99785.84;;;8.48;100.00
51526;BME280;37611;51.794;21.590;2023-03-20T23:35:25;99782.06;;;8.44;100.00
51526;BME280;37611;51.794;21.590;2023-03-20T23:39:27;99777.98;;;8.43;100.00
51526;BME280;37611;51.794;21.590;2023-03-20T23:43:28;99772.31;;;8.44;100.00
51526;BME280;37611;51.794;21.590;2023-03-20T23:47:30;99772.29;;;8.42;100.00
51526;BME280;37611;51.794;21.590;2023-03-20T23:51:32;99772.23;;;8.41;100.00